Time;durP1;ratioP1;P1;durP2;ratioP2;P2;SDS_P1;SDS_P2;PMS_P1;PMS_P2;Temp;Humidity;BMP_temperature;BMP_pressure;BME280_temperature;BME280_humidity;BME280_pressure;Samples;Min_cycle;Max_cycle;Signal;HPM_P1;HPM_P2
2022/07/05 00:01:08;;;;;;;1.10;0.73;;;16.80;77.40;;;;;;5067059;28;20090;-60
2022/07/05 00:03:47;;;;;;;1.02;0.60;;;16.70;77.50;;;;;;5064014;28;20028;-60
2022/07/05 00:06:13;;;;;;;0.85;0.63;;;16.70;77.50;;;;;;5066374;28;21089;-61
2022/07/05 00:08:39;;;;;;;1.73;0.70;;;16.60;77.70;;;;;;5067100;28;20036;-60
2022/07/05 00:11:04;;;;;;;0.82;0.57;;;16.50;78.60;;;;;;5068829;28;20480;-60
2022/07/05 00:13:30;;;;;;;0.60;0.52;;;16.40;79.20;;;;;;5068101;28;20042;-61
2022/07/05 00:15:55;;;;;;;0.60;0.50;;;16.30;79.60;;;;;;5068255;28;20032;-61
2022/07/05 00:18:21;;;;;;;1.35;0.80;;;16.20;79.80;;;;;;5066932;28;20029;-60
2022/07/05 00:20:46;;;;;;;0.80;0.68;;;16.20;80.00;;;;;;5066204;28;20035;-60
2022/07/05 00:23:12;;;;;;;1.65;0.80;;;16.10;80.10;;;;;;5067867;28;20036;-60
2022/07/05 00:25:38;;;;;;;0.82;0.60;;;16.20;80.30;;;;;;5067381;28;20507;-60
2022/07/05 00:28:04;;;;;;;2.30;0.88;;;16.10;80.20;;;;;;5065253;28;20081;-60
2022/07/05 00:30:29;;;;;;;1.65;0.85;;;16.10;80.30;;;;;;5066208;28;20032;-61
2022/07/05 00:32:55;;;;;;;0.98;0.65;;;16.10;80.50;;;;;;5067757;28;20051;-60
2022/07/05 00:35:20;;;;;;;1.33;0.80;;;15.90;80.90;;;;;;5068385;28;20025;-60
2022/07/05 00:37:46;;;;;;;0.88;0.60;;;15.90;81.40;;;;;;5064773;28;20029;-60
2022/07/05 00:40:11;;;;;;;1.25;0.68;;;15.80;81.70;;;;;;5070371;28;20826;-60
2022/07/05 00:42:37;;;;;;;0.93;0.60;;;15.70;82.00;;;;;;5066406;28;20029;-60
2022/07/05 00:45:04;;;;;;;0.82;0.70;;;15.70;82.10;;;;;;5067367;28;20480;-61
2022/07/05 00:47:30;;;;;;;1.00;0.73;;;15.70;82.20;;;;;;5068781;28;20028;-60
2022/07/05 00:49:55;;;;;;;1.60;0.95;;;15.70;82.30;;;;;;5077753;28;20033;-60
2022/07/05 00:52:22;;;;;;;0.98;0.85;;;15.60;82.50;;;;;;5066267;28;20104;-60
2022/07/05 00:54:48;;;;;;;1.00;0.70;;;15.60;82.80;;;;;;5065082;28;20550;-60
2022/07/05 00:57:14;;;;;;;2.10;0.95;;;15.50;83.10;;;;;;5099107;28;20036;-61
2022/07/05 00:59:39;;;;;;;1.40;0.70;;;15.50;83.40;;;;;;5067239;28;20526;-60
2022/07/05 01:02:05;;;;;;;1.70;0.82;;;15.40;83.40;;;;;;5070268;28;20031;-60
2022/07/05 01:04:30;;;;;;;1.48;1.02;;;15.40;83.60;;;;;;5069790;28;20024;-60
2022/07/05 01:06:57;;;;;;;1.50;0.88;;;15.40;83.70;;;;;;5071526;28;20362;-60
2022/07/05 01:09:23;;;;;;;1.75;1.17;;;15.30;83.90;;;;;;5067516;28;20028;-60
2022/07/05 01:11:50;;;;;;;1.85;1.58;;;15.30;84.00;;;;;;5071697;28;20100;-60
2022/07/05 01:14:18;;;;;;;2.63;1.30;;;15.30;84.20;;;;;;5070993;28;20388;-60
2022/07/05 01:16:44;;;;;;;1.92;1.40;;;15.30;84.30;;;;;;5069911;28;20500;-61
2022/07/05 01:19:14;;;;;;;1.83;1.33;;;15.30;84.60;;;;;;5069202;28;20450;-60
2022/07/05 01:21:42;;;;;;;3.42;1.20;;;15.30;84.70;;;;;;5051205;28;20066;-61
2022/07/05 01:24:13;;;;;;;1.88;1.17;;;15.20;84.90;;;;;;5070838;28;20066;-61
2022/07/05 01:26:39;;;;;;;1.90;1.30;;;15.20;85.10;;;;;;5053245;28;20020;-61
2022/07/05 01:29:06;;;;;;;1.92;1.00;;;15.10;85.20;;;;;;5070008;28;20056;-61
2022/07/05 01:31:32;;;;;;;1.52;1.10;;;15.10;85.40;;;;;;5068325;28;20028;-61
2022/07/05 01:33:58;;;;;;;2.22;1.27;;;15.20;85.70;;;;;;5071032;28;20017;-61
2022/07/05 01:36:24;;;;;;;2.15;1.45;;;15.10;85.70;;;;;;5069984;28;20024;-61
2022/07/05 01:38:50;;;;;;;2.10;1.60;;;15.00;86.00;;;;;;5069028;28;20047;-61
2022/07/05 01:41:16;;;;;;;3.03;1.95;;;15.00;86.30;;;;;;5069700;28;20048;-61
2022/07/05 01:43:41;;;;;;;2.28;1.63;;;15.00;86.60;;;;;;5070345;28;20024;-61
2022/07/05 01:46:08;;;;;;;2.08;1.40;;;14.90;87.40;;;;;;5069541;28;20392;-61
2022/07/05 01:48:36;;;;;;;2.75;1.92;;;14.90;87.10;;;;;;5068513;28;20547;-61
2022/07/05 01:51:13;;;;;;;2.22;1.92;;;14.80;87.40;;;;;;5068822;28;20082;-61
2022/07/05 01:53:40;;;;;;;4.13;2.17;;;14.80;87.70;;;;;;5069252;28;20089;-61
2022/07/05 01:56:06;;;;;;;3.28;2.20;;;14.80;88.00;;;;;;5068693;28;20033;-61
2022/07/05 01:58:32;;;;;;;2.38;2.03;;;14.80;88.10;;;;;;5068122;28;20037;-61
2022/07/05 02:00:58;;;;;;;2.88;2.10;;;14.80;88.30;;;;;;5070082;28;20083;-61
2022/07/05 02:03:25;;;;;;;2.90;2.60;;;14.70;88.40;;;;;;5070552;28;20056;-61
2022/07/05 02:05:52;;;;;;;5.35;3.67;;;14.70;88.50;;;;;;5068664;28;20538;-61
2022/07/05 02:08:20;;;;;;;4.88;3.25;;;14.50;89.70;;;;;;5069427;28;20419;-61
2022/07/05 02:10:46;;;;;;;3.28;2.85;;;14.30;90.60;;;;;;5068642;28;20021;-61
2022/07/05 02:13:12;;;;;;;2.42;1.30;;;14.10;91.10;;;;;;5067941;28;20074;-60
2022/07/05 02:15:40;;;;;;;2.50;1.30;;;14.00;91.40;;;;;;5052149;28;20026;-61
2022/07/05 02:18:07;;;;;;;1.58;1.30;;;14.00;91.50;;;;;;5068220;28;20104;-60
2022/07/05 02:20:33;;;;;;;2.00;1.70;;;14.10;91.60;;;;;;5069082;28;20038;-61
2022/07/05 02:22:59;;;;;;;3.72;1.92;;;14.10;91.50;;;;;;5068727;28;20120;-60
2022/07/05 02:25:25;;;;;;;2.97;2.40;;;14.10;91.60;;;;;;5067366;28;20555;-61
2022/07/05 02:27:52;;;;;;;3.50;2.60;;;14.10;91.60;;;;;;5066807;28;20500;-61
2022/07/05 02:30:18;;;;;;;3.17;2.40;;;14.20;91.60;;;;;;5066770;28;20039;-60
2022/07/05 02:32:43;;;;;;;3.10;2.45;;;14.20;91.70;;;;;;5069344;28;20028;-61
2022/07/05 02:35:10;;;;;;;3.50;2.60;;;14.10;91.70;;;;;;5068695;28;20028;-60
2022/07/05 02:37:36;;;;;;;2.60;2.28;;;14.10;91.70;;;;;;5067663;28;20081;-61
2022/07/05 02:40:04;;;;;;;4.57;3.95;;;14.10;92.00;;;;;;5066746;28;20028;-61
2022/07/05 02:42:29;;;;;;;3.03;2.72;;;13.70;93.30;;;;;;5069251;28;20032;-61
2022/07/05 02:44:55;;;;;;;2.20;2.00;;;13.60;93.70;;;;;;5066354;28;20036;-61
2022/07/05 02:47:21;;;;;;;1.80;1.50;;;13.50;94.00;;;;;;5068758;28;20036;-60
2022/07/05 02:49:46;;;;;;;1.50;1.38;;;13.60;94.10;;;;;;5068550;28;20086;-60
2022/07/05 02:52:12;;;;;;;2.33;1.63;;;13.50;94.00;;;;;;5068893;28;20032;-61
2022/07/05 02:54:39;;;;;;;3.03;2.20;;;13.60;94.00;;;;;;5070384;28;20029;-60
2022/07/05 02:57:05;;;;;;;4.00;2.40;;;13.70;94.00;;;;;;5080919;28;20020;-60
2022/07/05 02:59:30;;;;;;;3.13;2.75;;;13.70;94.00;;;;;;5066649;28;20062;-61
2022/07/05 03:01:56;;;;;;;4.05;2.70;;;13.70;93.90;;;;;;5067600;28;20021;-61
2022/07/05 03:04:28;;;;;;;4.45;3.50;;;13.80;93.90;;;;;;5069545;28;20070;-60
2022/07/05 03:06:54;;;;;;;4.40;3.60;;;13.80;94.10;;;;;;5068012;28;20021;-61
2022/07/05 03:09:19;;;;;;;4.25;3.25;;;13.70;94.40;;;;;;5065046;28;20377;-61
2022/07/05 03:11:45;;;;;;;4.70;3.05;;;13.50;94.80;;;;;;5070366;28;20389;-61
2022/07/05 03:14:10;;;;;;;7.22;5.25;;;13.50;95.20;;;;;;5068705;28;20033;-61
2022/07/05 03:17:09;;;;;;;9.52;6.47;;;13.40;95.70;;;;;;5069241;28;20016;-61
2022/07/05 03:19:33;;;;;;;5.35;4.85;;;13.40;96.30;;;;;;5063018;28;20032;-61
2022/07/05 03:21:58;;;;;;;5.38;4.25;;;13.30;96.50;;;;;;5067422;28;20024;-61
2022/07/05 03:24:24;;;;;;;4.50;3.70;;;13.40;96.40;;;;;;5067628;28;20016;-61
2022/07/05 03:26:49;;;;;;;3.15;2.78;;;13.50;96.40;;;;;;5066191;28;20067;-61
2022/07/05 03:29:15;;;;;;;3.53;3.20;;;13.60;96.30;;;;;;5083951;28;20017;-61
2022/07/05 03:31:40;;;;;;;5.85;3.47;;;13.60;96.20;;;;;;5068395;28;20479;-61
2022/07/05 03:34:06;;;;;;;4.38;3.97;;;13.70;96.10;;;;;;5068161;28;20052;-61
2022/07/05 03:36:31;;;;;;;4.45;3.92;;;13.80;96.10;;;;;;5066039;28;20029;-61
2022/07/05 03:38:57;;;;;;;4.82;3.92;;;13.80;96.00;;;;;;5067476;28;20033;-61
2022/07/05 03:41:22;;;;;;;4.75;3.30;;;13.90;96.00;;;;;;5064457;28;20516;-61
2022/07/05 03:43:48;;;;;;;4.43;3.72;;;13.80;96.00;;;;;;5068713;28;20060;-61
2022/07/05 03:46:13;;;;;;;4.43;3.85;;;13.90;95.90;;;;;;5066829;28;20020;-61
2022/07/05 03:48:39;;;;;;;5.25;4.03;;;13.90;96.00;;;;;;5066911;28;20028;-61
2022/07/05 03:51:05;;;;;;;5.88;4.82;;;13.90;96.00;;;;;;5063715;28;20452;-61
2022/07/05 03:53:30;;;;;;;4.53;4.10;;;14.00;96.10;;;;;;5068725;28;20032;-61
2022/07/05 03:55:56;;;;;;;4.88;3.63;;;14.00;96.10;;;;;;5067858;28;20028;-61
2022/07/05 03:58:21;;;;;;;5.80;4.25;;;14.10;96.10;;;;;;5066095;28;20040;-61
2022/07/05 04:00:47;;;;;;;7.80;7.00;;;14.10;96.00;;;;;;5067364;28;20051;-61
2022/07/05 04:03:12;;;;;;;10.98;8.57;;;14.10;96.70;;;;;;5068726;28;20032;-61
2022/07/05 04:05:39;;;;;;;9.55;7.38;;;13.90;97.80;;;;;;5066936;28;20077;-61
2022/07/05 04:08:04;;;;;;;6.57;5.88;;;13.70;98.30;;;;;;5068818;28;20089;-61
2022/07/05 04:10:30;;;;;;;6.47;5.78;;;13.80;98.50;;;;;;5067891;28;20550;-61
2022/07/05 04:12:55;;;;;;;5.90;4.75;;;13.90;98.40;;;;;;5067573;28;20029;-61
2022/07/05 04:15:21;;;;;;;5.47;4.68;;;13.90;98.30;;;;;;5064924;28;20024;-61
2022/07/05 04:17:54;;;;;;;5.80;4.28;;;14.00;98.10;;;;;;5067174;28;20078;-61
2022/07/05 04:20:24;;;;;;;5.05;4.43;;;14.10;98.00;;;;;;5067219;28;20037;-61
2022/07/05 04:23:02;;;;;;;;;;;14.10;97.90;;;;;;5066551;28;20126;-61
2022/07/05 04:25:27;;;;;;;5.53;4.93;;;14.10;97.80;;;;;;5068741;28;19916;-61
2022/07/05 04:27:54;;;;;;;7.57;6.18;;;14.10;98.00;;;;;;5066123;28;20396;-60
2022/07/05 04:30:23;;;;;;;7.28;6.55;;;14.20;98.00;;;;;;5065486;28;20054;-61
2022/07/05 04:32:48;;;;;;;7.95;7.15;;;14.20;98.10;;;;;;5068554;28;20575;-61
2022/07/05 04:35:14;;;;;;;9.27;8.18;;;14.20;98.30;;;;;;5070236;28;20036;-61
2022/07/05 04:37:40;;;;;;;10.27;9.07;;;14.20;98.60;;;;;;5070590;28;20025;-61
2022/07/05 04:40:08;;;;;;;9.90;8.35;;;14.20;98.80;;;;;;5068102;28;20544;-61
2022/07/05 04:42:33;;;;;;;10.65;9.45;;;14.20;99.20;;;;;;5071476;28;20028;-61
2022/07/05 04:44:59;;;;;;;8.38;7.53;;;14.30;99.50;;;;;;5071992;28;20097;-62
2022/07/05 04:47:28;;;;;;;11.00;7.32;;;14.30;99.50;;;;;;5069716;28;20025;-60
2022/07/05 04:49:54;;;;;;;11.48;9.48;;;14.40;99.40;;;;;;5068740;28;20109;-61
2022/07/05 04:52:20;;;;;;;13.38;11.50;;;14.40;99.50;;;;;;5069209;28;20021;-61
2022/07/05 04:54:46;;;;;;;13.15;11.32;;;14.50;99.90;;;;;;5070777;28;20028;-61
2022/07/05 04:57:11;;;;;;;10.75;9.65;;;14.50;99.90;;;;;;5069656;28;20036;-61
2022/07/05 04:59:37;;;;;;;11.27;9.98;;;14.50;99.90;;;;;;5070691;28;20087;-61
2022/07/05 05:02:03;;;;;;;11.73;10.40;;;14.60;99.90;;;;;;5070778;28;20105;-61
2022/07/05 05:04:28;;;;;;;13.27;11.45;;;14.60;99.90;;;;;;5068628;28;20396;-61
2022/07/05 05:06:54;;;;;;;13.98;10.70;;;14.70;99.90;;;;;;5069257;28;20414;-62
2022/07/05 05:09:20;;;;;;;13.77;11.88;;;14.70;99.90;;;;;;5070975;28;20028;-61
2022/07/05 05:11:46;;;;;;;11.77;10.55;;;14.80;99.90;;;;;;5070236;28;20012;-61
2022/07/05 05:14:12;;;;;;;10.25;8.57;;;14.80;99.90;;;;;;5069650;28;20153;-61
2022/07/05 05:16:37;;;;;;;9.48;8.38;;;14.90;99.90;;;;;;5069556;28;20500;-61
2022/07/05 05:19:03;;;;;;;8.65;7.75;;;14.90;99.90;;;;;;5074501;28;20028;-61
2022/07/05 05:21:28;;;;;;;8.68;7.75;;;15.00;99.90;;;;;;5066199;28;20103;-61
2022/07/05 05:23:54;;;;;;;10.30;7.82;;;15.10;99.90;;;;;;5060799;28;20116;-61
2022/07/05 05:26:19;;;;;;;9.20;7.82;;;15.20;99.90;;;;;;5065797;28;20098;-61
2022/07/05 05:28:57;;;;;;;9.38;7.60;;;15.20;99.90;;;;;;5059984;28;20082;-61
2022/07/05 05:31:22;;;;;;;9.50;8.40;;;15.30;99.90;;;;;;5092489;28;20128;-61
2022/07/05 05:33:48;;;;;;;10.63;8.70;;;15.30;99.90;;;;;;5059711;28;20440;-61
2022/07/05 05:36:13;;;;;;;14.43;10.52;;;15.40;99.90;;;;;;5063501;28;20029;-61
2022/07/05 05:38:39;;;;;;;12.27;10.13;;;15.50;99.90;;;;;;5068078;28;20115;-61
2022/07/05 05:41:05;;;;;;;10.95;8.82;;;15.50;99.90;;;;;;5060454;28;20036;-61
2022/07/05 05:43:31;;;;;;;10.52;9.13;;;15.60;99.90;;;;;;5070323;28;20025;-61
2022/07/05 05:45:56;;;;;;;9.57;8.48;;;15.70;99.90;;;;;;5070836;28;20052;-61
2022/07/05 05:51:10;;;;;;;10.90;8.73;;;15.80;99.90;;;;;;5068676;28;20021;-61
2022/07/05 05:53:45;;;;;;;10.13;8.73;;;15.90;99.90;;;;;;5070327;28;20025;-61
2022/07/05 05:56:12;;;;;;;9.00;7.53;;;16.00;99.90;;;;;;5072941;28;20047;-60
2022/07/05 05:58:37;;;;;;;8.68;7.78;;;16.10;99.90;;;;;;5071376;28;20020;-62
2022/07/05 06:01:03;;;;;;;11.05;8.77;;;16.20;99.70;;;;;;5072266;28;20078;-61
2022/07/05 06:03:28;;;;;;;8.95;8.00;;;16.30;99.60;;;;;;5054485;28;20029;-61
2022/07/05 06:05:54;;;;;;;10.57;8.50;;;16.30;99.50;;;;;;5072566;28;20059;-61
2022/07/05 06:08:20;;;;;;;10.98;7.88;;;16.40;99.40;;;;;;5069995;28;20040;-61
2022/07/05 06:10:46;;;;;;;9.88;8.35;;;16.50;99.30;;;;;;5080057;28;20029;-61
2022/07/05 06:13:13;;;;;;;9.43;7.93;;;16.50;99.10;;;;;;5088888;28;20055;-61
2022/07/05 06:15:39;;;;;;;9.75;6.45;;;16.60;99.00;;;;;;5068267;28;20124;-61
2022/07/05 06:18:06;;;;;;;8.35;7.32;;;16.60;98.90;;;;;;5065778;28;20024;-61
2022/07/05 06:20:33;;;;;;;7.47;6.53;;;16.70;98.80;;;;;;5065948;28;20021;-61
2022/07/05 06:23:00;;;;;;;11.25;9.20;;;16.80;98.70;;;;;;5061684;28;20024;-61
2022/07/05 06:25:26;;;;;;;8.68;7.13;;;16.80;98.50;;;;;;5057742;28;20469;-61
2022/07/05 06:28:06;;;;;;;9.60;7.95;;;16.70;98.50;;;;;;5054184;28;20086;-61
2022/07/05 06:30:34;;;;;;;8.02;7.22;;;16.70;98.40;;;;;;5067131;28;20040;-61
2022/07/05 06:32:59;;;;;;;9.02;7.10;;;16.70;98.40;;;;;;5058218;28;20025;-61
2022/07/05 06:35:26;;;;;;;7.93;6.15;;;16.80;98.30;;;;;;5056547;28;20036;-61
2022/07/05 06:37:52;;;;;;;8.07;7.25;;;16.80;98.10;;;;;;5058865;28;20100;-61
2022/07/05 06:40:23;;;;;;;7.07;5.72;;;16.90;98.00;;;;;;5061352;28;20021;-61
2022/07/05 06:42:53;;;;;;;6.78;5.50;;;17.00;97.80;;;;;;5058139;28;20021;-61
2022/07/05 06:45:19;;;;;;;9.48;8.32;;;17.00;97.60;;;;;;5061818;28;20031;-61
2022/07/05 06:47:45;;;;;;;8.90;8.00;;;17.00;97.40;;;;;;5060769;28;20033;-61
2022/07/05 06:50:11;;;;;;;11.73;10.27;;;17.10;97.30;;;;;;5064103;28;20055;-61
2022/07/05 06:52:37;;;;;;;11.38;9.05;;;17.10;97.40;;;;;;5054600;28;20061;-61
2022/07/05 06:55:03;;;;;;;10.57;9.00;;;17.20;97.30;;;;;;5079079;28;20024;-61
2022/07/05 06:57:29;;;;;;;12.55;10.25;;;17.30;97.10;;;;;;5058716;28;20051;-61
2022/07/05 06:59:55;;;;;;;12.65;10.40;;;17.40;97.10;;;;;;5057327;28;20491;-61
2022/07/05 07:02:20;;;;;;;14.88;9.95;;;17.40;96.30;;;;;;5056831;28;20068;-61
2022/07/05 07:04:47;;;;;;;11.38;8.90;;;17.40;96.10;;;;;;5059184;28;20048;-62
2022/07/05 07:10:00;;;;;;;9.23;8.05;;;17.60;95.70;;;;;;5055340;28;20380;-61
2022/07/05 07:12:26;;;;;;;8.18;5.85;;;17.60;95.40;;;;;;5062199;28;20074;-61
2022/07/05 07:14:52;;;;;;;5.53;4.95;;;17.50;95.40;;;;;;5064322;28;20033;-61
2022/07/05 07:17:17;;;;;;;6.43;5.70;;;17.60;95.30;;;;;;5059728;28;20036;-61
2022/07/05 07:19:43;;;;;;;9.82;5.65;;;17.70;94.90;;;;;;5064350;28;20023;-61
2022/07/05 07:22:09;;;;;;;6.93;5.90;;;17.70;93.70;;;;;;5062354;28;20461;-61
2022/07/05 07:24:34;;;;;;;14.60;6.85;;;17.70;93.70;;;;;;5073160;28;20055;-61
2022/07/05 07:27:03;;;;;;;7.60;5.40;;;17.80;93.70;;;;;;5065674;28;20029;-61
2022/07/05 07:29:34;;;;;;;7.13;4.65;;;17.80;93.60;;;;;;5060796;28;20070;-61
2022/07/05 07:32:00;;;;;;;6.93;6.22;;;17.90;93.50;;;;;;5056869;28;20071;-61
2022/07/05 07:34:27;;;;;;;5.80;4.80;;;18.00;93.30;;;;;;5060730;28;20017;-61
2022/07/05 07:36:54;;;;;;;4.45;3.60;;;18.20;93.10;;;;;;5056258;28;20040;-61
2022/07/05 07:39:33;;;;;;;7.57;5.50;;;18.30;92.90;;;;;;5054396;28;20013;-61
2022/07/05 07:42:00;;;;;;;9.52;6.70;;;18.50;92.70;;;;;;5061520;28;20059;-61
2022/07/05 07:44:26;;;;;;;7.63;6.85;;;18.60;92.00;;;;;;5058055;28;20048;-62
2022/07/05 07:46:51;;;;;;;7.38;6.35;;;18.70;91.80;;;;;;5061810;28;20055;-61
2022/07/05 07:49:18;;;;;;;7.43;5.60;;;18.80;91.30;;;;;;5056704;28;20376;-61
2022/07/05 07:51:43;;;;;;;7.88;5.82;;;19.00;91.00;;;;;;5066483;28;20021;-60
2022/07/05 07:54:10;;;;;;;6.38;4.78;;;19.10;90.70;;;;;;5067888;28;20012;-61
2022/07/05 07:57:09;;;;;;;5.35;4.10;;;19.30;90.50;;;;;;5062237;28;20017;-61
2022/07/05 08:02:44;;;;;;;5.93;4.88;;;19.50;89.50;;;;;;5009388;28;20405;-61
2022/07/05 08:05:10;;;;;;;5.20;4.43;;;19.60;89.30;;;;;;5062274;28;20029;-61
2022/07/05 08:07:36;;;;;;;4.20;3.72;;;19.80;89.20;;;;;;5061015;28;20017;-61
2022/07/05 08:10:07;;;;;;;4.88;3.63;;;20.00;88.90;;;;;;5059548;28;20025;-61
2022/07/05 08:12:33;;;;;;;6.10;5.07;;;20.20;88.60;;;;;;5078857;28;20035;-61
2022/07/05 08:15:01;;;;;;;7.55;4.90;;;20.20;87.10;;;;;;5061593;28;20396;-61
2022/07/05 08:17:27;;;;;;;3.83;3.47;;;20.30;86.90;;;;;;5059208;28;20025;-61
2022/07/05 08:22:36;;;;;;;5.25;3.90;;;20.60;86.70;;;;;;5056534;28;20484;-61
2022/07/05 08:25:02;;;;;;;5.40;3.53;;;20.70;86.40;;;;;;5064981;28;20029;-61
2022/07/05 08:27:28;;;;;;;5.00;4.20;;;20.90;86.10;;;;;;5074453;28;20026;-61
2022/07/05 08:30:04;;;;;;;4.55;3.40;;;21.00;85.60;;;;;;5056024;28;20040;-61
2022/07/05 08:32:57;;;;;;;4.35;3.90;;;21.10;85.10;;;;;;5062824;28;20091;-61
2022/07/05 08:35:23;;;;;;;3.88;3.47;;;21.20;84.50;;;;;;5064220;28;20613;-61
2022/07/05 08:42:18;;;;;;;4.85;3.45;;;21.40;83.90;;;;;;5002440;28;20034;-62
2022/07/05 08:44:49;;;;;;;4.68;3.65;;;21.70;83.30;;;;;;4998854;28;20591;-62
2022/07/05 08:47:15;;;;;;;6.97;3.65;;;21.80;83.10;;;;;;5056300;28;20397;-62
2022/07/05 08:49:40;;;;;;;5.95;4.22;;;21.90;82.60;;;;;;5051100;28;20428;-61
2022/07/05 08:52:11;;;;;;;4.38;3.60;;;22.00;81.50;;;;;;5058610;28;20069;-62
2022/07/05 08:54:37;;;;;;;6.82;3.78;;;22.00;81.30;;;;;;5062074;28;20032;-62
2022/07/05 08:57:03;;;;;;;4.03;3.63;;;22.10;80.60;;;;;;5060386;28;20029;-62
2022/07/05 08:59:42;;;;;;;;;;;;;;;;;;;;;
2022/07/05 09:02:13;;;;;;;4.45;3.58;;;22.10;79.70;;;;;;5059292;28;20031;-62
2022/07/05 09:04:43;;;;;;;3.50;2.63;;;22.00;79.50;;;;;;5063824;28;20043;-62
2022/07/05 09:07:09;;;;;;;5.10;2.60;;;22.00;79.50;;;;;;5063983;28;20067;-62
2022/07/05 09:09:45;;;;;;;4.50;2.42;;;22.00;79.00;;;;;;5058883;28;20012;-62
2022/07/05 09:12:14;;;;;;;5.38;2.45;;;22.00;79.00;;;;;;5058575;28;20052;-62
2022/07/05 09:14:40;;;;;;;;;;;21.90;77.90;;;;;;5056083;28;20493;-62
2022/07/05 09:17:05;;;;;;;4.43;2.55;;;21.80;77.80;;;;;;5057981;28;19911;-62
2022/07/05 09:19:32;;;;;;;4.18;2.25;;;21.70;77.00;;;;;;5054264;28;20108;-62
2022/07/05 09:22:14;;;;;;;;;;;;;;;;;;;;;
2022/07/05 09:24:46;;;;;;;5.13;2.33;;;21.50;78.20;;;;;;5054442;28;20015;-62
2022/07/05 09:27:13;;;;;;;3.47;2.35;;;21.40;77.60;;;;;;5085133;28;20017;-62
2022/07/05 09:29:39;;;;;;;2.50;1.85;;;21.40;78.00;;;;;;5070675;28;20024;-62
2022/07/05 09:32:05;;;;;;;3.28;2.47;;;21.50;78.00;;;;;;5071739;28;20487;-62
2022/07/05 09:34:31;;;;;;;2.95;2.33;;;21.50;78.00;;;;;;5073480;28;20020;-62
2022/07/05 09:37:04;;;;;;;5.68;3.42;;;21.50;78.30;;;;;;5073963;28;20440;-62
2022/07/05 09:39:29;;;;;;;2.35;2.15;;;21.60;78.10;;;;;;5067478;28;20107;-62
2022/07/05 09:42:13;;;;;;;2.60;1.92;;;21.60;78.30;;;;;;5064374;28;20100;-62
2022/07/05 09:44:44;;;;;;;4.40;2.30;;;21.80;77.80;;;;;;5068401;28;20024;-62
2022/07/05 09:47:12;;;;;;;3.72;2.00;;;21.80;78.00;;;;;;5069049;28;20115;-61
2022/07/05 09:50:24;;;;;;;2.92;1.70;;;21.90;77.70;;;;;;5068516;28;20021;-62
2022/07/05 09:52:56;;;;;;;1.75;1.30;;;22.10;77.30;;;;;;5056782;28;20041;-62
2022/07/05 09:55:21;;;;;;;2.65;1.88;;;22.10;77.30;;;;;;5055090;28;20025;-61
2022/07/05 09:57:47;;;;;;;4.28;2.72;;;22.20;77.10;;;;;;5059138;28;20048;-62
2022/07/05 10:00:18;;;;;;;2.92;2.00;;;22.20;75.90;;;;;;5060929;28;20120;-62
2022/07/05 10:02:47;;;;;;;3.50;2.30;;;22.20;75.90;;;;;;5057702;28;20544;-62
2022/07/05 10:05:23;;;;;;;5.88;1.88;;;22.10;75.80;;;;;;5066886;28;20032;-62
2022/07/05 10:07:54;;;;;;;3.25;1.65;;;22.10;75.70;;;;;;5061914;28;20112;-62
2022/07/05 10:10:22;;;;;;;3.92;2.00;;;22.00;75.40;;;;;;5057103;28;20136;-62
2022/07/05 10:12:50;;;;;;;3.30;1.50;;;21.90;75.50;;;;;;5063436;28;20040;-62
2022/07/05 10:15:19;;;;;;;3.25;1.30;;;21.90;75.30;;;;;;5059700;28;20028;-62
2022/07/05 10:17:49;;;;;;;4.25;1.20;;;22.00;74.80;;;;;;5061268;28;20527;-61
2022/07/05 10:20:42;;;;;;;1.88;0.90;;;22.00;74.30;;;;;;5074018;28;20024;-61
2022/07/05 10:23:13;;;;;;;3.30;1.25;;;22.10;73.70;;;;;;5051184;28;20059;-62
2022/07/05 10:25:41;;;;;;;3.67;1.20;;;22.10;73.60;;;;;;5065373;28;20024;-61
2022/07/05 10:28:07;;;;;;;2.28;1.38;;;22.10;73.60;;;;;;5058746;28;20020;-61
2022/07/05 10:30:34;;;;;;;3.35;1.50;;;22.20;73.50;;;;;;5055919;28;20025;-61
2022/07/05 10:33:05;;;;;;;3.67;1.65;;;22.20;73.30;;;;;;5061403;28;20032;-61
2022/07/05 10:35:31;;;;;;;3.42;1.23;;;22.30;73.30;;;;;;5057415;28;20477;-61
2022/07/05 10:38:01;;;;;;;4.25;1.95;;;22.40;73.50;;;;;;5060776;28;20070;-61
2022/07/05 10:40:28;;;;;;;3.20;1.98;;;22.50;73.40;;;;;;5066580;28;20021;-61
2022/07/05 10:43:00;;;;;;;5.18;1.98;;;22.60;73.30;;;;;;5051773;28;20029;-61
2022/07/05 10:45:34;;;;;;;2.92;1.70;;;22.70;73.30;;;;;;5071760;28;20120;-61
2022/07/05 10:48:09;;;;;;;3.28;1.80;;;22.80;73.40;;;;;;5072170;28;20052;-61
2022/07/05 10:50:55;;;;;;;2.97;1.40;;;23.00;73.20;;;;;;5072498;28;20038;-61
2022/07/05 10:53:23;;;;;;;3.38;1.50;;;23.10;72.90;;;;;;5062450;28;20056;-61
2022/07/05 10:55:56;;;;;;;3.50;1.63;;;23.10;72.10;;;;;;5071834;28;20032;-61
2022/07/05 10:58:30;;;;;;;1.95;1.40;;;23.20;71.70;;;;;;5068128;28;20025;-61
2022/07/05 11:01:20;;;;;;;2.92;1.63;;;23.40;70.50;;;;;;5057195;28;20127;-62
2022/07/05 11:04:05;;;;;;;3.25;1.90;;;23.40;70.00;;;;;;5059535;28;20013;-61
2022/07/05 11:06:49;;;;;;;4.30;2.08;;;23.40;70.00;;;;;;5060618;28;20117;-62
2022/07/05 11:09:16;;;;;;;2.88;1.65;;;23.50;69.60;;;;;;5065090;28;20407;-62
2022/07/05 11:11:51;;;;;;;3.50;1.30;;;23.60;69.00;;;;;;5052245;28;20106;-62
2022/07/05 11:14:22;;;;;;;3.28;1.50;;;23.80;68.10;;;;;;5066072;28;20113;-62
2022/07/05 11:17:09;;;;;;;3.60;1.70;;;24.00;66.90;;;;;;5059695;28;20036;-62
2022/07/05 11:19:55;;;;;;;3.13;0.90;;;24.10;65.20;;;;;;5054870;28;20031;-62
2022/07/05 11:22:20;;;;;;;2.80;1.00;;;24.30;64.60;;;;;;5056478;28;20025;-62
2022/07/05 11:24:46;;;;;;;2.35;0.80;;;24.60;63.20;;;;;;5061640;28;20024;-62
2022/07/05 11:27:12;;;;;;;2.10;1.08;;;24.70;62.90;;;;;;5072121;28;20110;-62
2022/07/05 11:29:54;;;;;;;1.27;0.75;;;24.90;61.90;;;;;;5066506;28;20484;-62
2022/07/05 11:32:34;;;;;;;2.95;0.65;;;24.90;60.60;;;;;;5071158;28;20035;-61
2022/07/05 11:35:15;;;;;;;1.90;0.80;;;25.00;60.20;;;;;;5062322;28;20024;-62
2022/07/05 11:38:04;;;;;;;1.83;0.80;;;25.10;59.00;;;;;;5061574;28;20016;-62
2022/07/05 11:40:31;;;;;;;5.18;1.20;;;25.20;59.10;;;;;;5057365;28;20055;-62
2022/07/05 11:42:57;;;;;;;4.10;0.98;;;25.10;58.40;;;;;;5057204;28;20025;-62
2022/07/05 11:45:24;;;;;;;2.50;1.00;;;25.10;58.70;;;;;;5074750;28;20032;-62
2022/07/05 11:47:56;;;;;;;2.05;0.80;;;25.30;58.50;;;;;;5063968;28;20043;-62
2022/07/05 11:50:26;;;;;;;1.13;0.70;;;25.40;58.30;;;;;;5062830;28;20164;-62
2022/07/05 11:52:52;;;;;;;4.30;0.70;;;25.60;58.10;;;;;;5059562;28;20028;-62
2022/07/05 11:55:18;;;;;;;2.30;0.70;;;25.70;57.60;;;;;;5071897;28;20025;-62
2022/07/05 11:57:51;;;;;;;1.15;0.60;;;25.80;57.70;;;;;;5064830;28;20021;-62
2022/07/05 12:00:40;;;;;;;0.82;0.47;;;25.90;57.70;;;;;;5064594;28;20036;-62
2022/07/05 12:03:12;;;;;;;1.58;0.50;;;26.10;57.20;;;;;;5054772;28;20095;-63
2022/07/05 12:05:38;;;;;;;1.88;0.50;;;26.20;56.70;;;;;;5065542;28;20630;-62
2022/07/05 12:08:04;;;;;;;1.10;0.57;;;26.30;56.30;;;;;;5071112;28;20032;-62
2022/07/05 12:13:14;;;;;;;1.23;0.68;;;26.50;55.60;;;;;;5068334;28;20050;-62
2022/07/05 12:15:40;;;;;;;4.18;0.70;;;26.60;54.10;;;;;;5057524;28;20017;-62
2022/07/05 12:18:08;;;;;;;2.90;0.50;;;26.70;53.40;;;;;;5066841;28;20024;-62
2022/07/05 12:20:36;;;;;;;1.95;0.50;;;26.70;53.40;;;;;;5068818;28;20024;-62
2022/07/05 12:23:02;;;;;;;1.08;0.50;;;26.80;53.50;;;;;;5070805;28;20021;-62
2022/07/05 12:25:30;;;;;;;1.98;0.60;;;26.90;52.70;;;;;;5069076;28;20032;-62
2022/07/05 12:27:57;;;;;;;1.48;0.60;;;27.10;52.40;;;;;;5070189;28;20053;-61
2022/07/05 12:30:24;;;;;;;1.48;0.55;;;27.00;52.30;;;;;;5063235;28;20031;-62
2022/07/05 12:32:54;;;;;;;2.55;0.60;;;27.20;52.90;;;;;;5067186;28;20024;-62
2022/07/05 12:35:34;;;;;;;2.40;0.60;;;27.30;52.50;;;;;;5070522;28;20021;-62
2022/07/05 12:38:07;;;;;;;2.40;0.50;;;27.20;52.50;;;;;;5068952;28;20472;-62
2022/07/05 12:40:58;;;;;;;2.15;0.50;;;27.20;52.90;;;;;;5059249;28;20204;-62
2022/07/05 12:43:24;;;;;;;0.95;0.35;;;27.30;53.00;;;;;;5061595;28;20021;-62
2022/07/05 12:46:06;;;;;;;2.53;0.55;;;27.40;53.20;;;;;;5069011;28;20366;-62
2022/07/05 12:48:36;;;;;;;2.70;0.50;;;27.50;52.90;;;;;;5070301;28;20024;-62
2022/07/05 12:51:03;;;;;;;1.45;0.50;;;27.50;52.00;;;;;;5069973;28;20080;-62
2022/07/05 12:59:01;;;;;;;1.88;0.40;;;27.80;51.30;;;;;;5054953;28;20110;-62
2022/07/05 13:01:31;;;;;;;2.25;0.60;;;27.80;51.80;;;;;;5062558;28;20396;-62
2022/07/05 13:03:58;;;;;;;1.25;0.40;;;27.80;51.10;;;;;;5056658;28;20044;-62
2022/07/05 13:06:38;;;;;;;1.75;0.43;;;27.80;51.10;;;;;;5065523;28;20582;-62
2022/07/05 13:09:04;;;;;;;1.83;0.50;;;27.90;50.80;;;;;;5069747;28;20020;-62
2022/07/05 13:11:32;;;;;;;0.93;0.40;;;28.00;51.10;;;;;;5056640;28;20029;-63
2022/07/05 13:13:58;;;;;;;1.00;0.20;;;27.90;51.00;;;;;;5055458;28;20024;-63
2022/07/05 13:16:23;;;;;;;1.45;0.40;;;27.80;51.40;;;;;;5071467;28;20025;-62
2022/07/05 13:18:49;;;;;;;1.63;0.40;;;27.80;51.20;;;;;;5071080;28;20716;-62